Flight Track Log - Related Links

Times and Time Zones

All times are in EDT time to prevent confusion due to time zone crossing. See the FLG3944 flight status page for this flight to view local times or setup timezone preferences in your user account.

Time Position Orientation Groundspeed Altitude Reporting Facility
EDT Latitude Longitude Course Direction KTS MPH feet Rate Location/Type
Mon 02:28:27 PM 44.8500 -93.1833 117° Southeast 188 216 2,900  Level Minneapolis TRACON
Mon 02:29:27 PM 44.8167 -93.1000 119° Southeast 235 270 5,000 1,974 Climbing Minneapolis TRACON
Mon 02:29:43 PM 44.8236 -93.0767 67° East 257 296 5,400 2,615 Climbing Minneapolis Center
Mon 02:30:00 PM 44.8325 -92.7595 110° East  Level Estimated
Mon 02:30:45 PM 44.8236 -92.9686 90° East 281 323 8,400  Level Minneapolis Center
Mon 02:31:00 PM 44.8156 -92.6056 118° Southeast  Level Estimated
Mon 02:31:47 PM 44.7897 -92.8706 116° Southeast 277 319 10,500  Level Minneapolis Center
Mon 02:32:00 PM 44.7159 -92.5386 154° Southeast  Level FlightAware Approximate
Mon 02:32:49 PM 44.7506 -92.7594 116° Southeast 317 365 12,100  Level Minneapolis Center
Mon 02:33:00 PM 44.7003 -92.3847 117° Southeast  Level Estimated
Mon 02:33:51 PM 44.7100 -92.6442 116° Southeast 329 379 14,000  Level Minneapolis Center
Mon 02:34:53 PM 44.6672 -92.5219 116° Southeast 350 403 15,300 1,258 Climbing Minneapolis Center
Mon 02:35:55 PM 44.6225 -92.3961 116° Southeast 361 415 16,600 1,548 Climbing Minneapolis Center
Mon 02:36:57 PM 44.5667 -92.2406 117° Southeast 371 427 18,500 1,452 Climbing Minneapolis Center
Mon 02:37:59 PM 44.5092 -92.1189 124° Southeast 374 430 19,600 1,016 Climbing Minneapolis Center
Mon 02:39:01 PM 44.4458 -91.9986 126° Southeast 382 440 20,600 919 Climbing Minneapolis Center
Mon 02:40:03 PM 44.3817 -91.8742 126° Southeast 391 450 21,500 871 Climbing Minneapolis Center
Mon 02:41:05 PM 44.3278 -91.7381 119° Southeast 400 460 22,400 968 Climbing Minneapolis Center
Mon 02:42:07 PM 44.2633 -91.5697 118° Southeast 409 471 23,500 1,016 Climbing Minneapolis Center
Mon 02:43:09 PM 44.2106 -91.4286 118° Southeast 410 472 24,500 768 Climbing Minneapolis Center
Mon 02:44:12 PM 44.1578 -91.2933 119° Southeast 404 465 25,100 720 Climbing Minneapolis Center
Mon 02:45:14 PM 44.1092 -91.1675 118° Southeast 402 463 26,000 919 Climbing Minneapolis Center
Mon 02:46:16 PM 44.0483 -91.0117 118° Southeast 389 448 27,000 919 Climbing Minneapolis Center
Mon 02:47:18 PM 43.9978 -90.8839 119° Southeast 382 440 27,900 871 Climbing Minneapolis Center
Mon 02:48:20 PM 43.9486 -90.7572 118° Southeast 377 434 28,800 532 Climbing Minneapolis Center
Mon 02:49:22 PM 43.8997 -90.6336 119° Southeast 370 426 29,000 107 Climbing Minneapolis Center
Mon 02:50:12 PM 43.8561 -90.5239 119° Southeast 384 442 29,000  Level Minneapolis Center
Mon 02:51:26 PM 43.7931 -90.3642 119° Southeast 403 464 29,000  Level Minneapolis Center
Mon 02:52:28 PM 43.7278 -90.2011 119° Southeast 414 476 29,000  Level Minneapolis Center
Mon 02:53:30 PM 43.6719 -90.0611 119° Southeast 417 480 29,000  Level Minneapolis Center
Mon 02:54:32 PM 43.6139 -89.9186 119° Southeast 422 486 29,000  Level Minneapolis Center
Mon 02:55:03 PM 43.5847 -89.8475 120° Southeast 425 489 29,000  Level Chicago Center
Mon 02:56:05 PM 43.5708 -89.6467 95° East 459 528 29,000  Level Chicago Center
Mon 02:57:07 PM 43.5736 -89.4694 89° East 463 533 29,000  Level Chicago Center
Mon 02:58:09 PM 43.5767 -89.2922 89° East 463 533 29,000  Level Chicago Center
Mon 02:59:11 PM 43.5792 -89.1158 89° East 460 529 29,000  Level Chicago Center
Mon 03:00:15 PM 43.5814 -88.9378 89° East 462 532 29,000  Level Chicago Center
Mon 03:01:17 PM 43.5833 -88.7286 89° East 466 536 29,000  Level Chicago Center
Mon 03:02:19 PM 43.5861 -88.5472 89° East 465 535 29,000  Level Chicago Center
Mon 03:03:21 PM 43.5858 -88.3628 90° East 470 541 29,000  Level Chicago Center
Mon 03:04:23 PM 43.5867 -88.1814 90° East 470 541 29,000  Level Chicago Center
Mon 03:05:25 PM 43.5869 -88.0008 90° East 470 541 29,000  Level Chicago Center
Mon 03:06:27 PM 43.5875 -87.8214 90° East 468 539 29,000  Level Chicago Center
Mon 03:07:29 PM 43.5872 -87.6414 90° East 469 540 29,000  Level Chicago Center
Mon 03:08:31 PM 43.5872 -87.4322 90° East 468 539 29,000  Level Chicago Center
Mon 03:09:33 PM 43.5864 -87.2514 90° East 470 541 29,000  Level Chicago Center
Mon 03:10:36 PM 43.5861 -87.0731 90° East 467 537 29,000  Level Chicago Center
Mon 03:11:38 PM 43.5850 -86.8944 90° East 467 537 29,000  Level Chicago Center
Mon 03:12:40 PM 43.5831 -86.7144 91° East 469 540 29,000 -387 Level Chicago Center
Mon 03:13:42 PM 43.5192 -86.5742 122° Southeast 450 518 28,200 -871 Descending Chicago Center
Mon 03:14:44 PM 43.4250 -86.4714 142° Southeast 436 502 27,200 -1,113 Descending Chicago Center
Mon 03:15:46 PM 43.3061 -86.3625 146° Southeast 431 496 25,900 -1,113 Descending Chicago Center
Mon 03:16:48 PM 43.2072 -86.2717 146° Southeast 430 495 24,900 -919 Descending Chicago Center
Mon 03:17:50 PM 43.1094 -86.1819 146° Southeast 428 493 24,000 -726 Descending Chicago Center
Mon 03:18:52 PM 43.0147 -86.0958 146° Southeast 422 486 23,400 -919 Descending Chicago Center
Mon 03:19:54 PM 42.9078 -85.9906 144° Southeast 407 468 22,100 -1,161 Descending Chicago Center
Mon 03:20:56 PM 42.8225 -85.9044 143° Southeast 388 447 21,000 -1,016 Descending Chicago Center
Mon 03:21:58 PM 42.7375 -85.8197 144° Southeast 381 438 20,000 -629 Descending Chicago Center
Mon 03:23:00 PM 42.6556 -85.7356 143° Southeast 372 428 19,700 -528 Descending Chicago Center
Mon 03:24:03 PM 42.5997 -85.6114 121° Southeast 396 456 18,900 -864 Descending Chicago Center
Mon 03:25:05 PM 42.6325 -85.4306 76° East 422 486 17,900 -1,113 Descending Chicago Center
Mon 03:26:07 PM 42.7047 -85.3119 50° Northeast 410 472 16,600 -1,355 Descending Chicago Center
Mon 03:27:09 PM 42.7786 -85.2056 47° Northeast 393 452 15,100 -1,452 Descending Chicago Center
Mon 03:28:11 PM 42.8489 -85.1017 47° Northeast 381 438 13,600 -1,452 Descending Chicago Center
Mon 03:29:13 PM 42.9186 -84.9994 47° Northeast 374 430 12,100 -1,258 Descending Chicago Center
Mon 03:30:15 PM 42.9989 -84.8797 47° Northeast 363 418 11,000 -532 Descending Chicago Center
Mon 03:31:17 PM 43.0667 -84.7803 47° Northeast 358 412 11,000 -435 Level Chicago Center
Mon 03:32:19 PM 43.1314 -84.6853 47° Northeast 350 403 10,100 -1,306 Descending Chicago Center
Mon 03:33:21 PM 43.1911 -84.5947 48° Northeast 328 377 8,300 -1,694 Descending Chicago Center
Mon 03:34:23 PM 43.2492 -84.5094 47° Northeast 313 360 6,600 -1,790 Descending Chicago Center
Mon 03:35:25 PM 43.3147 -84.4100 48° Northeast 303 349 4,600 -1,771 Descending Chicago Center
Mon 03:36:08 PM 43.3386 -84.3569 58° Northeast 286 329 3,500 -1,223 Descending Cleveland Center
Mon 03:37:08 PM 43.3806 -84.2794 53° Northeast 264 304 2,500 -600 Descending Cleveland Center
Mon 03:38:08 PM 43.4183 -84.2075 54° Northeast 238 274 2,300 -100 Descending Cleveland Center
Mon 03:39:08 PM 43.4539 -84.1381 55° Northeast 224 258 2,300  Level Cleveland Center
Mon 03:40:08 PM 43.4958 -84.0603 53° Northeast 219 252 2,300  Level Cleveland Center

Login

Don't have an account? Register now (free) for customized features, flight alerts, and more!